Time;durP1;ratioP1;P1;durP2;ratioP2;P2;SDS_P1;SDS_P2;PMS_P1;PMS_P2;Temp;Humidity;BMP_temperature;BMP_pressure;BME280_temperature;BME280_humidity;BME280_pressure;Samples;Min_cycle;Max_cycle;Signal;HPM_P1;HPM_P2
2021/10/25 00:01:56;;;;;;;0.50;0.50;;;5.70;94.30;;;;;;5054115;28;20447;-73
2021/10/25 00:04:22;;;;;;;0.40;0.40;;;5.80;94.10;;;;;;5054131;28;20087;-73
2021/10/25 00:06:48;;;;;;;0.40;0.40;;;5.70;93.60;;;;;;5053970;28;20045;-73
2021/10/25 00:09:14;;;;;;;0.30;0.30;;;5.70;93.70;;;;;;5019530;28;20124;-73
2021/10/25 00:11:40;;;;;;;0.30;0.30;;;5.50;94.10;;;;;;5053957;28;20112;-73
2021/10/25 00:14:06;;;;;;;0.25;0.25;;;5.40;94.50;;;;;;5053899;28;20040;-73
2021/10/25 00:16:32;;;;;;;0.30;0.30;;;5.50;94.10;;;;;;5053778;28;20033;-73
2021/10/25 00:18:58;;;;;;;0.40;0.40;;;5.40;94.30;;;;;;5019301;28;20098;-73
2021/10/25 00:21:24;;;;;;;0.38;0.38;;;5.50;94.50;;;;;;5053838;28;20064;-73
2021/10/25 00:23:50;;;;;;;0.30;0.30;;;5.50;94.20;;;;;;5035815;28;20071;-73
2021/10/25 00:26:16;;;;;;;0.40;0.40;;;5.40;94.30;;;;;;5035660;28;20033;-73
2021/10/25 00:28:42;;;;;;;0.22;0.22;;;5.40;94.70;;;;;;5036023;28;20036;-73
2021/10/25 00:31:07;;;;;;;1.55;1.08;;;5.40;94.70;;;;;;5035768;28;20036;-73
2021/10/25 00:33:33;;;;;;;0.30;0.30;;;5.40;94.90;;;;;;5035804;28;20033;-73
2021/10/25 00:35:59;;;;;;;0.30;0.30;;;5.50;95.50;;;;;;5053386;28;20078;-73
2021/10/25 00:38:25;;;;;;;0.30;0.30;;;5.50;95.00;;;;;;5053353;28;20494;-73
2021/10/25 00:40:53;;;;;;;0.30;0.30;;;5.60;95.30;;;;;;5053336;28;20053;-73
2021/10/25 00:43:19;;;;;;;0.65;0.65;;;5.60;95.60;;;;;;5035763;28;20541;-73
2021/10/25 00:45:45;;;;;;;0.32;0.32;;;5.50;95.10;;;;;;5053144;28;20100;-73
2021/10/25 00:48:11;;;;;;;0.40;0.40;;;5.50;95.30;;;;;;5053219;28;20025;-73
2021/10/25 00:50:37;;;;;;;0.40;0.40;;;5.30;94.90;;;;;;5053295;28;20463;-73
2021/10/25 00:53:04;;;;;;;0.30;0.30;;;5.00;96.30;;;;;;5053091;28;20114;-73
2021/10/25 00:55:31;;;;;;;0.60;0.60;;;5.00;96.50;;;;;;5052976;28;20032;-73
2021/10/25 00:57:56;;;;;;;0.30;0.30;;;5.10;96.30;;;;;;5053017;28;20040;-73
2021/10/25 01:00:24;;;;;;;0.40;0.40;;;5.10;96.20;;;;;;5053085;28;20360;-73
2021/10/25 01:02:50;;;;;;;0.43;0.43;;;5.20;96.70;;;;;;5053326;28;20032;-73
2021/10/25 01:05:16;;;;;;;0.30;0.30;;;5.20;96.20;;;;;;5052755;28;20060;-73
2021/10/25 01:07:43;;;;;;;0.30;0.30;;;5.20;96.40;;;;;;5052955;28;20422;-73
2021/10/25 01:10:09;;;;;;;0.30;0.30;;;5.20;96.40;;;;;;5052939;28;20110;-73
2021/10/25 01:12:35;;;;;;;0.30;0.30;;;5.10;96.20;;;;;;5052852;28;20036;-73
2021/10/25 01:15:02;;;;;;;0.30;0.30;;;4.90;96.80;;;;;;5034771;28;20108;-73
2021/10/25 01:17:28;;;;;;;0.40;0.40;;;4.90;97.20;;;;;;5052666;28;20112;-73
2021/10/25 01:19:55;;;;;;;0.25;0.25;;;4.80;97.20;;;;;;5034859;28;20412;-73
2021/10/25 01:22:22;;;;;;;0.30;0.30;;;5.00;98.00;;;;;;5052471;28;20029;-73
2021/10/25 01:24:51;;;;;;;0.30;0.30;;;5.10;97.00;;;;;;5052452;28;20029;-73
2021/10/25 01:27:18;;;;;;;0.45;0.45;;;5.00;97.00;;;;;;5052527;28;20049;-73
2021/10/25 01:29:44;;;;;;;2.15;2.05;;;5.00;97.40;;;;;;5052534;28;20025;-73
2021/10/25 01:32:10;;;;;;;1.33;1.25;;;5.10;96.80;;;;;;5052019;28;20021;-73
2021/10/25 01:34:36;;;;;;;0.65;0.65;;;5.10;96.70;;;;;;5034404;28;20037;-73
2021/10/25 01:37:03;;;;;;;1.27;1.20;;;5.00;96.60;;;;;;5052570;28;20500;-73
2021/10/25 01:39:30;;;;;;;0.50;0.50;;;5.10;96.60;;;;;;5034282;28;20029;-73
2021/10/25 01:41:56;;;;;;;0.30;0.30;;;5.10;96.40;;;;;;5052142;28;20029;-73
2021/10/25 01:44:22;;;;;;;0.50;0.50;;;5.10;95.90;;;;;;5034522;28;20039;-73
2021/10/25 01:46:48;;;;;;;0.52;0.52;;;5.20;96.00;;;;;;5034108;28;20025;-73
2021/10/25 01:49:15;;;;;;;0.30;0.30;;;5.10;96.00;;;;;;5034194;28;20108;-73
2021/10/25 01:51:41;;;;;;;0.22;0.22;;;5.20;95.70;;;;;;5052168;28;20074;-73
2021/10/25 01:54:08;;;;;;;0.50;0.50;;;5.10;96.00;;;;;;5052084;28;20427;-73
2021/10/25 01:56:36;;;;;;;0.30;0.30;;;5.00;96.10;;;;;;5051961;28;20025;-73
2021/10/25 01:59:09;;;;;;;0.40;0.40;;;5.00;96.70;;;;;;5034109;28;20496;-73
2021/10/25 02:01:35;;;;;;;0.35;0.35;;;5.00;96.10;;;;;;5052601;28;20081;-73
2021/10/25 02:04:05;;;;;;;0.30;0.30;;;5.00;96.80;;;;;;5051987;28;20062;-73
2021/10/25 02:06:32;;;;;;;0.40;0.40;;;5.00;96.70;;;;;;5033844;28;20501;-73
2021/10/25 02:08:57;;;;;;;0.30;0.30;;;5.00;96.70;;;;;;5034059;28;20563;-72
2021/10/25 02:11:23;;;;;;;0.35;0.35;;;5.00;96.80;;;;;;5033977;28;20028;-73
2021/10/25 02:13:49;;;;;;;0.32;0.32;;;4.90;97.00;;;;;;5051928;28;20096;-73
2021/10/25 02:16:16;;;;;;;0.30;0.30;;;5.00;97.30;;;;;;5051462;28;20017;-73
2021/10/25 02:18:42;;;;;;;0.40;0.40;;;5.00;97.30;;;;;;5051721;28;20096;-73
2021/10/25 02:21:10;;;;;;;0.30;0.30;;;5.10;97.80;;;;;;5051709;28;20480;-73
2021/10/25 02:23:35;;;;;;;0.40;0.40;;;5.10;97.60;;;;;;5051754;28;20090;-73
2021/10/25 02:26:01;;;;;;;0.50;0.50;;;5.10;97.20;;;;;;5017239;28;20104;-73
2021/10/25 02:28:28;;;;;;;0.30;0.30;;;5.10;97.00;;;;;;5017267;28;20029;-73
2021/10/25 02:30:53;;;;;;;0.30;0.30;;;5.10;96.90;;;;;;5051639;28;20388;-73
2021/10/25 02:33:21;;;;;;;0.30;0.30;;;5.00;97.10;;;;;;5051700;28;20025;-73
2021/10/25 02:35:48;;;;;;;0.52;0.52;;;5.30;97.50;;;;;;5051674;28;20017;-73
2021/10/25 02:38:14;;;;;;;0.30;0.30;;;5.40;96.60;;;;;;5051654;28;20017;-73
2021/10/25 02:40:40;;;;;;;0.22;0.22;;;5.40;96.20;;;;;;5068755;23;20058;-71
2021/10/25 02:43:07;;;;;;;0.30;0.30;;;5.30;96.10;;;;;;5071320;28;20040;-70
2021/10/25 02:45:33;;;;;;;0.30;0.30;;;5.40;95.90;;;;;;5075485;28;20028;-71
2021/10/25 02:48:00;;;;;;;0.30;0.30;;;5.50;95.60;;;;;;5075540;28;20047;-71
2021/10/25 02:50:26;;;;;;;0.30;0.30;;;5.60;95.50;;;;;;5075302;28;20399;-71
2021/10/25 02:52:54;;;;;;;0.30;0.30;;;5.80;95.50;;;;;;5074051;28;20136;-70
2021/10/25 02:55:19;;;;;;;0.30;0.30;;;6.00;94.50;;;;;;5073846;28;20035;-71
2021/10/25 02:57:45;;;;;;;0.30;0.30;;;6.00;94.00;;;;;;5075270;28;20115;-71
2021/10/25 03:00:14;;;;;;;0.30;0.30;;;6.30;94.50;;;;;;5073976;28;20028;-71
2021/10/25 03:02:42;;;;;;;0.30;0.30;;;6.50;93.90;;;;;;5073787;28;20035;-71
2021/10/25 03:05:09;;;;;;;0.30;0.30;;;6.50;93.60;;;;;;5056861;28;20021;-71
2021/10/25 03:07:35;;;;;;;0.30;0.30;;;6.30;93.50;;;;;;5074962;28;20031;-70
2021/10/25 03:10:02;;;;;;;0.30;0.30;;;6.10;94.30;;;;;;5073650;28;20071;-71
2021/10/25 03:12:28;;;;;;;0.30;0.30;;;5.90;94.30;;;;;;5074982;28;20105;-71
2021/10/25 03:14:54;;;;;;;0.30;0.30;;;5.70;95.30;;;;;;5073474;28;20071;-70
2021/10/25 03:17:20;;;;;;;0.20;0.20;;;5.70;95.20;;;;;;5074957;28;20031;-70
2021/10/25 03:19:47;;;;;;;0.30;0.30;;;5.50;94.90;;;;;;5074742;28;20034;-71
2021/10/25 03:22:14;;;;;;;0.30;0.30;;;5.20;95.70;;;;;;5073586;28;20024;-70
2021/10/25 03:24:42;;;;;;;0.30;0.30;;;5.20;96.30;;;;;;5073420;28;20031;-71
2021/10/25 03:27:08;;;;;;;0.38;0.38;;;5.00;96.40;;;;;;5074781;28;20430;-70
2021/10/25 03:29:34;;;;;;;1.45;0.50;;;5.10;96.60;;;;;;5073342;28;20017;-71
2021/10/25 03:32:00;;;;;;;0.30;0.30;;;5.20;96.50;;;;;;5073394;28;20031;-70
2021/10/25 03:34:28;;;;;;;0.32;0.32;;;5.00;96.40;;;;;;5056410;28;20029;-71
2021/10/25 03:36:55;;;;;;;0.95;0.95;;;4.90;97.00;;;;;;5073210;28;20028;-71
2021/10/25 03:39:24;;;;;;;0.30;0.30;;;5.10;97.50;;;;;;5074726;28;20545;-71
2021/10/25 03:41:53;;;;;;;0.30;0.30;;;5.30;97.60;;;;;;5073210;28;20070;-71
2021/10/25 03:44:36;;;;;;;0.40;0.40;;;5.40;97.20;;;;;;5074472;28;20016;-71
2021/10/25 03:47:11;;;;;;;0.40;0.40;;;5.40;97.10;;;;;;5073076;28;20029;-70
2021/10/25 03:49:44;;;;;;;0.30;0.30;;;5.20;97.80;;;;;;5074451;28;20021;-71
2021/10/25 03:52:26;;;;;;;0.30;0.30;;;4.90;98.20;;;;;;5073175;28;20395;-70
2021/10/25 03:55:10;;;;;;;;;;;4.90;98.30;;;;;;5073279;28;20028;-70
2021/10/25 04:27:15;;;;;;;0.32;0.32;;;4.90;99.20;;;;;;5073247;28;20048;-71
2021/10/25 04:29:44;;;;;;;0.80;0.75;;;4.90;99.10;;;;;;5072901;28;20017;-70
2021/10/25 04:32:09;;;;;;;0.40;0.40;;;4.80;99.30;;;;;;5073342;28;20028;-71
2021/10/25 04:34:35;;;;;;;0.60;0.60;;;4.80;99.90;;;;;;5072119;28;20040;-71
2021/10/25 04:37:01;;;;;;;0.30;0.30;;;4.90;99.90;;;;;;5073366;28;20115;-71
2021/10/25 04:39:27;;;;;;;1.23;1.13;;;4.90;99.20;;;;;;5073193;28;20391;-71
2021/10/25 04:41:53;;;;;;;0.45;0.43;;;4.90;99.50;;;;;;5073112;28;20029;-70
2021/10/25 04:44:19;;;;;;;0.95;0.95;;;5.00;99.00;;;;;;5073154;28;20392;-71
2021/10/25 04:46:45;;;;;;;0.32;0.32;;;5.00;99.00;;;;;;5071769;28;20395;-71
2021/10/25 04:49:10;;;;;;;1.95;1.85;;;4.90;98.90;;;;;;5073114;28;20027;-71
2021/10/25 04:51:36;;;;;;;0.40;0.40;;;4.80;99.20;;;;;;5073040;28;20549;-71
2021/10/25 04:54:02;;;;;;;0.40;0.40;;;4.80;99.00;;;;;;5073041;28;20033;-71
2021/10/25 04:56:29;;;;;;;0.32;0.32;;;4.90;99.00;;;;;;5071471;28;20024;-71
2021/10/25 04:58:55;;;;;;;0.30;0.30;;;5.00;98.60;;;;;;5072800;28;20024;-71
2021/10/25 05:01:20;;;;;;;0.65;0.65;;;5.10;98.40;;;;;;5054495;28;20033;-71
2021/10/25 05:03:46;;;;;;;1.95;1.65;;;5.20;97.80;;;;;;5072804;28;20054;-71
2021/10/25 05:06:18;;;;;;;0.40;0.40;;;5.30;97.70;;;;;;5070471;28;20454;-71
2021/10/25 05:08:48;;;;;;;0.30;0.30;;;5.10;97.90;;;;;;5071265;28;20048;-71
2021/10/25 05:11:14;;;;;;;0.30;0.30;;;5.20;98.00;;;;;;5072321;28;20412;-71
2021/10/25 05:13:40;;;;;;;0.30;0.30;;;5.20;97.70;;;;;;5071343;28;20020;-71
2021/10/25 05:16:06;;;;;;;0.40;0.40;;;5.10;98.30;;;;;;5054253;28;20056;-70
2021/10/25 05:18:32;;;;;;;0.40;0.40;;;5.20;98.60;;;;;;5072316;28;20035;-70
2021/10/25 05:20:58;;;;;;;0.25;0.25;;;5.40;98.30;;;;;;5067144;28;20029;-70
2021/10/25 05:23:24;;;;;;;0.30;0.30;;;5.50;98.00;;;;;;5048726;28;20388;-71
2021/10/25 05:25:50;;;;;;;0.30;0.30;;;5.40;97.30;;;;;;5055317;28;20079;-71
2021/10/25 05:28:17;;;;;;;0.40;0.40;;;5.60;97.40;;;;;;5069021;28;20029;-71
2021/10/25 05:30:44;;;;;;;0.40;0.40;;;5.50;97.30;;;;;;5033992;28;20021;-70
2021/10/25 05:33:10;;;;;;;0.40;0.40;;;5.50;97.30;;;;;;5053802;28;20024;-71
2021/10/25 05:35:38;;;;;;;0.30;0.30;;;5.30;98.20;;;;;;5070716;28;20479;-71
2021/10/25 05:38:04;;;;;;;0.40;0.40;;;5.20;98.10;;;;;;5069671;28;20017;-71
2021/10/25 05:40:31;;;;;;;0.55;0.52;;;5.20;97.90;;;;;;5062176;28;20108;-71
2021/10/25 05:42:57;;;;;;;1.25;1.15;;;5.00;98.10;;;;;;5066691;28;20021;-71
2021/10/25 05:45:24;;;;;;;0.60;0.60;;;5.00;98.60;;;;;;5071456;28;20032;-71
2021/10/25 05:47:49;;;;;;;0.40;0.40;;;5.00;99.50;;;;;;5066490;28;20072;-71
2021/10/25 05:50:15;;;;;;;0.47;0.47;;;4.90;99.30;;;;;;5070680;28;20691;-71
2021/10/25 05:52:41;;;;;;;0.30;0.30;;;4.90;99.40;;;;;;5070487;28;20020;-71
2021/10/25 05:55:08;;;;;;;5.63;5.28;;;4.80;99.50;;;;;;5066493;28;20024;-70
2021/10/25 05:57:33;;;;;;;0.30;0.30;;;4.80;99.90;;;;;;5070534;28;20021;-71
2021/10/25 06:00:01;;;;;;;0.25;0.25;;;4.80;99.90;;;;;;5070058;28;20470;-71
2021/10/25 06:02:36;;;;;;;0.30;0.30;;;4.90;99.90;;;;;;5069937;28;20465;-71
2021/10/25 06:05:05;;;;;;;0.50;0.50;;;4.90;99.90;;;;;;5070189;28;20088;-71
2021/10/25 06:07:31;;;;;;;0.28;0.28;;;4.90;99.90;;;;;;5070555;28;20427;-71
2021/10/25 06:09:57;;;;;;;2.47;2.28;;;5.00;99.90;;;;;;5070300;28;20078;-70
2021/10/25 06:12:25;;;;;;;0.25;0.25;;;5.00;99.90;;;;;;5066242;28;20020;-71
2021/10/25 06:14:52;;;;;;;0.30;0.30;;;4.90;99.90;;;;;;5071594;28;20023;-71
2021/10/25 06:19:43;;;;;;;0.50;0.50;;;4.90;99.90;;;;;;5070820;28;20025;-71
2021/10/25 06:22:09;;;;;;;0.30;0.30;;;5.00;99.90;;;;;;5071050;28;20024;-71
2021/10/25 06:24:35;;;;;;;0.40;0.40;;;5.10;99.90;;;;;;5070044;28;20017;-71
2021/10/25 06:27:00;;;;;;;0.30;0.30;;;5.20;99.90;;;;;;5071546;28;20070;-71
2021/10/25 06:29:26;;;;;;;0.45;0.45;;;5.40;99.90;;;;;;5070115;28;20173;-71
2021/10/25 06:31:52;;;;;;;0.68;0.68;;;5.60;99.90;;;;;;5071523;28;20032;-71
2021/10/25 06:34:23;;;;;;;1.85;0.82;;;5.60;98.70;;;;;;5071515;28;20024;-71
2021/10/25 06:36:51;;;;;;;0.40;0.40;;;5.50;98.60;;;;;;5053359;28;20436;-71
2021/10/25 06:39:23;;;;;;;0.30;0.30;;;5.50;98.20;;;;;;5069771;28;20033;-71
2021/10/25 06:41:49;;;;;;;;;;;5.70;98.50;;;;;;5070126;28;20032;-71
2021/10/25 06:44:15;;;;;;;0.30;0.30;;;5.80;98.50;;;;;;5069930;28;19910;-72
2021/10/25 06:46:43;;;;;;;0.20;0.20;;;5.80;98.30;;;;;;5053152;28;20021;-71
2021/10/25 06:49:09;;;;;;;0.38;0.38;;;5.90;98.80;;;;;;5069905;28;20020;-71
2021/10/25 06:51:35;;;;;;;0.30;0.30;;;6.00;98.10;;;;;;5071357;28;20029;-71
2021/10/25 06:54:02;;;;;;;1.05;1.05;;;6.10;97.70;;;;;;5069650;28;20028;-71
2021/10/25 06:56:28;;;;;;;0.22;0.22;;;6.00;98.00;;;;;;5052730;28;20029;-71
2021/10/25 06:58:54;;;;;;;0.20;0.20;;;6.20;98.20;;;;;;5069726;28;20119;-72
2021/10/25 07:01:21;;;;;;;0.20;0.20;;;6.10;98.50;;;;;;5069911;28;20028;-71
2021/10/25 07:03:46;;;;;;;0.28;0.28;;;6.10;98.30;;;;;;5069707;28;20025;-71
2021/10/25 07:06:16;;;;;;;0.30;0.30;;;6.00;98.60;;;;;;5071133;28;20388;-72
2021/10/25 07:08:42;;;;;;;0.30;0.30;;;6.10;98.50;;;;;;5069944;28;20048;-71
2021/10/25 07:11:10;;;;;;;0.30;0.30;;;6.20;98.80;;;;;;5069970;28;20028;-70
2021/10/25 07:13:37;;;;;;;0.30;0.30;;;6.40;98.30;;;;;;5071151;28;20483;-73
2021/10/25 07:16:16;;;;;;;0.32;0.32;;;6.50;97.80;;;;;;5071312;28;20013;-71
2021/10/25 07:19:16;;;;;;;0.30;0.30;;;6.50;97.50;;;;;;5071166;28;20020;-71
2021/10/25 08:10:03;;;;;;;0.22;0.22;;;7.70;97.90;;;;;;5073837;28;20024;-71
2021/10/25 08:12:31;;;;;;;0.50;0.50;;;7.70;98.00;;;;;;5073698;28;20030;-70
2021/10/25 08:15:00;;;;;;;0.20;0.20;;;7.70;98.30;;;;;;5055604;28;20082;-71
2021/10/25 08:17:37;;;;;;;1.77;1.67;;;7.80;98.70;;;;;;5072379;28;20395;-71
2021/10/25 08:20:05;;;;;;;0.30;0.30;;;7.90;98.20;;;;;;5073889;28;20484;-71
2021/10/25 08:22:33;;;;;;;0.20;0.20;;;8.00;98.20;;;;;;5072293;28;20024;-72
2021/10/25 08:25:00;;;;;;;0.30;0.30;;;8.10;98.90;;;;;;5055438;28;20029;-71
2021/10/25 08:27:26;;;;;;;0.35;0.35;;;8.40;98.60;;;;;;5073214;28;20021;-72
2021/10/25 08:29:52;;;;;;;0.40;0.40;;;8.60;97.80;;;;;;5071717;28;20032;-72
2021/10/25 08:42:55;;;;;;;0.20;0.20;;;9.00;99.90;;;;;;5050038;28;20037;-76
2021/10/25 08:45:29;;;;;;;0.20;0.20;;;9.00;99.20;;;;;;5053001;28;20021;-76
2021/10/25 08:47:57;;;;;;;0.20;0.20;;;9.20;99.80;;;;;;5053448;28;20024;-76
2021/10/25 08:50:25;;;;;;;0.25;0.25;;;9.20;99.90;;;;;;5053235;28;20148;-76
2021/10/25 08:52:53;;;;;;;0.28;0.28;;;9.20;99.90;;;;;;5035334;28;20100;-76
2021/10/25 08:55:19;;;;;;;0.20;0.20;;;9.30;99.90;;;;;;5051688;28;20332;-76
2021/10/25 08:57:49;;;;;;;0.30;0.30;;;9.40;99.90;;;;;;5053391;28;20017;-76
2021/10/25 09:00:21;;;;;;;0.20;0.20;;;9.50;99.90;;;;;;5051710;28;20367;-76
2021/10/25 09:03:02;;;;;;;0.30;0.30;;;9.50;99.90;;;;;;5035029;28;20033;-76
2021/10/25 09:05:28;;;;;;;0.73;0.73;;;9.70;99.90;;;;;;5052687;28;20029;-76
2021/10/25 09:07:58;;;;;;;0.20;0.20;;;9.90;97.50;;;;;;5034939;28;20021;-76
2021/10/25 09:10:28;;;;;;;0.20;0.20;;;10.00;97.00;;;;;;5053146;28;20043;-76
2021/10/25 09:13:03;;;;;;;0.20;0.20;;;10.20;96.40;;;;;;5052634;28;20033;-77
2021/10/25 09:15:37;;;;;;;0.65;0.65;;;10.30;94.20;;;;;;5052492;28;20035;-76
2021/10/25 09:18:21;;;;;;;0.28;0.28;;;10.40;93.20;;;;;;5051323;28;20063;-76
2021/10/25 09:20:50;;;;;;;0.20;0.20;;;10.50;93.20;;;;;;5051389;28;20396;-77
2021/10/25 09:23:20;;;;;;;0.17;0.17;;;10.70;92.20;;;;;;5051152;28;20021;-77
2021/10/25 09:25:54;;;;;;;0.30;0.30;;;10.80;92.30;;;;;;5050989;28;20017;-76
2021/10/25 09:28:27;;;;;;;0.20;0.20;;;10.90;92.70;;;;;;5052423;28;20040;-76
2021/10/25 09:30:56;;;;;;;0.20;0.20;;;11.10;92.40;;;;;;5052522;28;20060;-76
2021/10/25 09:33:24;;;;;;;0.13;0.13;;;11.00;92.00;;;;;;5052305;28;20503;-76
2021/10/25 09:36:03;;;;;;;0.30;0.30;;;11.00;92.30;;;;;;5051001;28;20035;-76
2021/10/25 09:38:36;;;;;;;0.20;0.20;;;10.90;92.40;;;;;;5052586;28;20017;-76
2021/10/25 09:49:13;;;;;;;0.30;0.30;;;11.10;90.30;;;;;;5052124;28;20048;-77
2021/10/25 09:51:41;;;;;;;0.20;0.20;;;11.10;81.30;;;;;;5051782;28;20033;-76
2021/10/25 09:54:09;;;;;;;0.20;0.20;;;11.10;84.70;;;;;;5050833;28;20087;-76
2021/10/25 09:56:44;;;;;;;0.28;0.28;;;11.10;85.50;;;;;;5051934;28;20029;-76
2021/10/25 09:59:25;;;;;;;0.20;0.20;;;11.20;86.30;;;;;;5050769;28;20456;-76
2021/10/25 10:01:51;;;;;;;0.30;0.30;;;11.30;85.30;;;;;;5052169;28;20079;-76
2021/10/25 10:04:17;;;;;;;0.20;0.20;;;11.40;87.60;;;;;;5051942;28;20052;-77
2021/10/25 10:06:43;;;;;;;0.20;0.20;;;11.40;87.00;;;;;;5050502;28;20036;-77
2021/10/25 10:09:09;;;;;;;0.20;0.20;;;11.50;89.70;;;;;;5051835;28;20028;-76
2021/10/25 10:11:35;;;;;;;0.20;0.20;;;11.50;90.30;;;;;;5051908;28;20021;-76
2021/10/25 10:14:01;;;;;;;0.20;0.20;;;11.50;90.10;;;;;;5051845;28;20033;-76
2021/10/25 10:16:28;;;;;;;0.20;0.20;;;11.50;90.70;;;;;;5051469;28;20569;-76
2021/10/25 10:19:03;;;;;;;0.20;0.20;;;11.60;90.90;;;;;;5051755;28;20452;-77
2021/10/25 10:21:30;;;;;;;0.20;0.20;;;11.60;90.20;;;;;;5050468;28;20025;-76
2021/10/25 10:24:08;;;;;;;0.20;0.20;;;11.70;89.80;;;;;;5050460;28;20024;-76
2021/10/25 10:26:36;;;;;;;0.20;0.20;;;11.60;86.60;;;;;;5050293;28;20025;-77
2021/10/25 10:29:12;;;;;;;0.20;0.20;;;11.70;82.60;;;;;;5033504;28;20112;-77
2021/10/25 10:31:38;;;;;;;0.20;0.20;;;11.80;88.30;;;;;;5051622;28;20031;-76
2021/10/25 10:34:12;;;;;;;0.10;0.10;;;11.80;90.50;;;;;;5050455;28;20028;-77
2021/10/25 10:36:53;;;;;;;0.20;0.20;;;11.90;90.60;;;;;;5050188;28;20021;-76
2021/10/25 10:39:25;;;;;;;0.20;0.20;;;12.10;90.30;;;;;;5051454;28;20044;-76
2021/10/25 10:41:58;;;;;;;0.10;0.10;;;12.10;89.50;;;;;;5050250;28;20067;-76
2021/10/25 10:44:27;;;;;;;0.20;0.20;;;12.10;89.90;;;;;;5051080;28;20392;-77
2021/10/25 10:47:07;;;;;;;0.10;0.10;;;12.10;89.20;;;;;;5051503;28;20021;-76
2021/10/25 10:49:42;;;;;;;0.13;0.13;;;12.10;86.50;;;;;;5051481;28;20017;-76
2021/10/25 11:00:30;;;;;;;0.20;0.20;;;12.10;80.30;;;;;;5027154;28;20037;-77
2021/10/25 11:03:04;;;;;;;0.40;0.40;;;12.20;78.20;;;;;;5033429;28;20025;-77
2021/10/25 11:05:34;;;;;;;0.10;0.10;;;12.10;76.00;;;;;;5054443;28;20504;-77
2021/10/25 11:08:08;;;;;;;0.20;0.20;;;12.30;78.30;;;;;;5055177;28;20094;-77
2021/10/25 11:10:39;;;;;;;0.20;0.20;;;12.30;76.10;;;;;;5037287;28;20472;-77
2021/10/25 11:13:22;;;;;;;0.20;0.20;;;12.50;71.90;;;;;;5055318;28;20108;-77
2021/10/25 11:16:42;;;;;;;0.20;0.20;;;12.90;69.60;;;;;;5053792;28;20021;-77
2021/10/25 11:18:51;;;;;;;0.20;0.20;;;13.20;68.20;;;;;;5046619;28;20042;-77
2021/10/25 11:21:53;;;;;;;4.80;2.40;;;13.60;67.00;;;;;;5054780;28;20017;-76
2021/10/25 11:24:20;;;;;;;0.85;0.85;;;13.70;65.30;;;;;;5054995;28;20465;-77
2021/10/25 11:26:53;;;;;;;23.20;4.88;;;13.70;66.50;;;;;;5053460;28;20017;-77
2021/10/25 11:29:20;;;;;;;0.20;0.20;;;13.90;67.10;;;;;;5054889;28;20017;-77
2021/10/25 11:31:49;;;;;;;0.75;0.68;;;14.40;66.60;;;;;;5053610;28;20029;-77
2021/10/25 11:34:27;;;;;;;0.30;0.30;;;14.40;66.10;;;;;;5054636;28;20500;-76
2021/10/25 11:37:01;;;;;;;0.30;0.30;;;14.20;67.10;;;;;;5053380;28;20496;-76
2021/10/25 11:39:36;;;;;;;0.20;0.20;;;13.80;68.50;;;;;;5053127;28;20086;-77
2021/10/25 11:42:04;;;;;;;0.10;0.10;;;13.90;69.90;;;;;;5053076;28;20607;-76
2021/10/25 11:44:33;;;;;;;0.20;0.20;;;13.80;70.60;;;;;;5053039;28;20370;-76
2021/10/25 11:46:59;;;;;;;12.40;0.47;;;13.70;71.10;;;;;;5053315;28;20435;-77
2021/10/25 11:49:26;;;;;;;0.10;0.10;;;13.50;72.10;;;;;;5036601;28;20104;-77
2021/10/25 11:51:55;;;;;;;0.20;0.20;;;13.40;72.60;;;;;;5054434;28;20510;-77
2021/10/25 11:54:22;;;;;;;0.47;0.47;;;13.30;72.90;;;;;;5054174;28;20110;-77
2021/10/25 11:56:50;;;;;;;0.15;0.15;;;13.20;73.20;;;;;;5054362;28;20384;-76
2021/10/25 11:59:17;;;;;;;0.20;0.20;;;13.30;74.50;;;;;;5052822;28;20029;-77
2021/10/25 12:01:44;;;;;;;0.30;0.30;;;13.40;74.40;;;;;;5052854;28;20100;-77
2021/10/25 12:04:09;;;;;;;0.10;0.10;;;13.50;75.00;;;;;;5052749;28;20435;-76
2021/10/25 12:06:36;;;;;;;0.22;0.22;;;13.20;75.60;;;;;;5053806;28;20021;-77
2021/10/25 12:09:08;;;;;;;0.10;0.10;;;13.30;76.50;;;;;;5052934;28;20032;-77
2021/10/25 12:11:51;;;;;;;0.20;0.20;;;13.30;75.50;;;;;;5054379;28;20067;-76
2021/10/25 12:14:25;;;;;;;0.20;0.20;;;13.30;75.10;;;;;;5053980;28;20039;-77
2021/10/25 12:16:51;;;;;;;0.13;0.13;;;13.40;74.00;;;;;;5053995;28;20033;-77
2021/10/25 12:19:17;;;;;;;0.10;0.10;;;13.30;74.40;;;;;;5053939;28;20029;-76
2021/10/25 12:21:44;;;;;;;0.20;0.20;;;13.20;75.70;;;;;;5052526;28;20028;-76
2021/10/25 12:24:11;;;;;;;0.20;0.20;;;13.20;75.80;;;;;;5053037;28;20094;-77
2021/10/25 12:26:42;;;;;;;2.58;1.75;;;13.00;76.50;;;;;;5052498;28;20028;-77
2021/10/25 12:29:19;;;;;;;0.30;0.30;;;13.00;76.70;;;;;;5053920;28;20348;-77
2021/10/25 12:31:47;;;;;;;0.40;0.40;;;12.90;77.90;;;;;;5054058;28;20098;-76
2021/10/25 12:34:14;;;;;;;0.20;0.20;;;12.80;78.60;;;;;;5053499;28;20029;-76
2021/10/25 12:36:44;;;;;;;0.20;0.20;;;12.80;78.60;;;;;;5054039;28;20025;-76
2021/10/25 12:39:14;;;;;;;0.10;0.10;;;12.90;79.30;;;;;;5036072;28;20184;-78
2021/10/25 12:41:49;;;;;;;0.20;0.20;;;12.70;79.00;;;;;;5053757;28;20041;-76
2021/10/25 12:44:40;;;;;;;0.20;0.20;;;12.70;78.90;;;;;;5053200;28;20017;-76
2021/10/25 12:47:13;;;;;;;0.20;0.20;;;12.90;78.30;;;;;;5053466;28;20100;-76
2021/10/25 12:49:44;;;;;;;0.20;0.20;;;12.90;78.60;;;;;;5052153;28;20063;-76
2021/10/25 12:52:12;;;;;;;0.75;0.73;;;12.90;78.60;;;;;;5053581;28;20033;-76
2021/10/25 12:54:39;;;;;;;0.20;0.20;;;12.70;78.90;;;;;;5051864;28;20036;-76
2021/10/25 12:57:20;;;;;;;0.10;0.10;;;12.60;79.30;;;;;;5053233;28;20028;-76
2021/10/25 13:00:13;;;;;;;0.20;0.20;;;12.50;79.40;;;;;;5053158;28;20107;-76
2021/10/25 13:02:46;;;;;;;0.65;0.43;;;12.40;80.60;;;;;;5053066;28;20078;-76
2021/10/25 13:05:18;;;;;;;0.30;0.30;;;12.40;81.60;;;;;;5051771;28;20021;-76
2021/10/25 13:07:55;;;;;;;0.15;0.15;;;12.30;81.90;;;;;;5035179;28;20039;-76
2021/10/25 13:10:29;;;;;;;0.55;0.55;;;12.40;81.70;;;;;;5051675;28;20086;-76
2021/10/25 13:12:57;;;;;;;0.30;0.30;;;12.40;82.80;;;;;;5053050;28;20031;-76
2021/10/25 13:15:24;;;;;;;0.10;0.10;;;12.30;81.80;;;;;;5052791;28;20025;-76
2021/10/25 13:17:51;;;;;;;0.32;0.32;;;12.30;82.30;;;;;;5052846;28;20025;-76
2021/10/25 13:20:20;;;;;;;0.20;0.20;;;12.40;81.80;;;;;;5052666;28;20100;-76
2021/10/25 13:22:51;;;;;;;0.30;0.30;;;12.50;81.50;;;;;;5052525;28;20029;-76
2021/10/25 13:25:18;;;;;;;0.45;0.45;;;12.50;81.70;;;;;;5051337;28;20075;-76
2021/10/25 13:27:44;;;;;;;0.35;0.35;;;12.50;81.30;;;;;;5051988;28;20032;-76
2021/10/25 13:30:12;;;;;;;0.20;0.20;;;12.50;82.50;;;;;;5052719;28;20043;-76
2021/10/25 13:32:38;;;;;;;0.20;0.20;;;12.50;81.80;;;;;;5052565;28;20362;-76
2021/10/25 13:35:06;;;;;;;0.10;0.10;;;12.60;83.70;;;;;;5052348;28;20021;-76
2021/10/25 13:37:32;;;;;;;0.20;0.20;;;12.60;85.90;;;;;;5050982;28;20503;-76
2021/10/25 13:39:58;;;;;;;0.13;0.13;;;12.70;85.50;;;;;;5050856;28;20032;-76
2021/10/25 13:42:24;;;;;;;0.10;0.10;;;12.60;85.30;;;;;;5052356;28;20078;-76
2021/10/25 13:44:50;;;;;;;0.20;0.20;;;12.50;86.10;;;;;;5051967;28;20028;-76
2021/10/25 13:47:16;;;;;;;0.20;0.20;;;12.50;87.00;;;;;;5052388;28;20025;-76
2021/10/25 13:49:42;;;;;;;0.20;0.20;;;12.40;87.60;;;;;;5052226;28;20025;-76
2021/10/25 13:52:08;;;;;;;0.15;0.15;;;12.40;87.70;;;;;;5034308;28;20037;-76
2021/10/25 13:54:34;;;;;;;0.10;0.10;;;12.30;87.10;;;;;;5050595;28;20075;-76
2021/10/25 13:57:06;;;;;;;0.13;0.13;;;12.30;86.30;;;;;;5052209;28;20036;-76
2021/10/25 13:59:32;;;;;;;0.20;0.20;;;12.30;86.60;;;;;;5051036;28;20048;-76
2021/10/25 14:01:58;;;;;;;0.20;0.20;;;12.40;86.80;;;;;;5050519;28;20136;-76
2021/10/25 14:04:23;;;;;;;5.72;0.93;;;12.30;86.00;;;;;;5050857;28;20489;-76
2021/10/25 14:06:49;;;;;;;0.10;0.10;;;12.30;85.70;;;;;;5051925;28;20017;-76
2021/10/25 14:09:15;;;;;;;0.10;0.10;;;12.20;85.30;;;;;;5050842;28;20028;-76
2021/10/25 14:11:46;;;;;;;0.20;0.20;;;12.30;85.20;;;;;;5051862;28;20047;-76
2021/10/25 14:14:19;;;;;;;0.10;0.10;;;12.00;87.40;;;;;;5050627;28;20171;-76
2021/10/25 14:16:54;;;;;;;0.10;0.10;;;12.10;87.70;;;;;;5051510;28;20043;-76
2021/10/25 14:19:25;;;;;;;0.10;0.10;;;12.10;87.70;;;;;;5050378;28;20391;-76
2021/10/25 14:21:51;;;;;;;0.20;0.20;;;12.30;88.30;;;;;;5051771;28;20047;-76
2021/10/25 14:24:18;;;;;;;0.20;0.20;;;12.30;86.50;;;;;;5051737;28;20369;-76
2021/10/25 14:26:45;;;;;;;0.10;0.10;;;12.00;86.40;;;;;;5051628;28;20451;-76
2021/10/25 14:29:12;;;;;;;0.20;0.20;;;11.90;87.50;;;;;;5050297;28;20048;-76
2021/10/25 14:31:39;;;;;;;0.20;0.20;;;12.00;87.40;;;;;;5051819;28;20021;-76
2021/10/25 14:34:05;;;;;;;0.13;0.13;;;12.10;86.60;;;;;;5051879;28;20025;-75
2021/10/25 14:36:32;;;;;;;0.30;0.30;;;12.10;85.70;;;;;;5051514;28;20496;-75
2021/10/25 14:44:23;;;;;;;0.30;0.30;;;12.30;84.50;;;;;;5028274;28;20052;-94
2021/10/25 14:55:03;;;;;;;0.15;0.15;;;12.10;84.50;;;;;;5031381;28;20030;-93
2021/10/25 14:57:32;;;;;;;0.20;0.20;;;12.10;86.50;;;;;;5012418;28;20026;-92
2021/10/25 14:59:58;;;;;;;0.10;0.10;;;12.10;86.40;;;;;;5009363;28;20029;-91
2021/10/25 15:02:24;;;;;;;0.20;0.20;;;12.10;86.00;;;;;;5011235;28;20033;-91